Time;durP1;ratioP1;P1;durP2;ratioP2;P2;SDS_P1;SDS_P2;PMS_P1;PMS_P2;Temp;Humidity;BMP_temperature;BMP_pressure;BME280_temperature;BME280_humidity;BME280_pressure;Samples;Min_cycle;Max_cycle;Signal;HPM_P1;HPM_P2
2023/01/30 00:01:18;;;;;;;34.47;29.08;;;-0.50;99.90;;;;;;5077239;28;20027;-64
2023/01/30 00:03:44;;;;;;;73.07;65.25;;;-0.70;99.90;;;;;;5095182;28;20427;-64
2023/01/30 00:06:10;;;;;;;48.53;43.60;;;-0.60;99.90;;;;;;5094817;28;20095;-64
2023/01/30 00:08:35;;;;;;;29.63;25.60;;;-0.70;99.90;;;;;;5112780;28;20031;-64
2023/01/30 00:11:06;;;;;;;28.95;25.88;;;-0.70;99.90;;;;;;5115357;28;20508;-64
2023/01/30 00:13:33;;;;;;;24.02;19.98;;;-0.70;99.90;;;;;;5115187;28;20047;-64
2023/01/30 00:15:59;;;;;;;23.60;20.05;;;-0.80;99.90;;;;;;5115790;28;20030;-64
2023/01/30 00:18:25;;;;;;;39.75;28.77;;;-0.90;99.90;;;;;;5115306;28;20020;-64
2023/01/30 00:20:59;;;;;;;28.75;22.27;;;-1.00;99.90;;;;;;5114930;28;20030;-64
2023/01/30 00:23:26;;;;;;;36.42;27.42;;;-0.90;99.90;;;;;;5115187;28;20488;-64
2023/01/30 00:25:52;;;;;;;38.58;27.80;;;-1.10;99.90;;;;;;5115225;28;20055;-64
2023/01/30 00:28:18;;;;;;;38.35;26.98;;;-1.10;99.90;;;;;;5115057;28;20426;-64
2023/01/30 00:30:44;;;;;;;37.92;27.27;;;-1.10;99.90;;;;;;5115382;28;20019;-64
2023/01/30 00:33:10;;;;;;;36.80;26.75;;;-1.20;99.90;;;;;;5114803;28;20879;-64
2023/01/30 00:35:36;;;;;;;40.88;30.73;;;-1.30;99.90;;;;;;5115096;28;20040;-64
2023/01/30 00:38:02;;;;;;;41.63;30.77;;;-1.30;99.90;;;;;;5114846;28;20480;-64
2023/01/30 00:40:28;;;;;;;42.70;31.48;;;-1.40;99.90;;;;;;5114747;28;20031;-64
2023/01/30 00:48:26;;;;;;;41.67;30.98;;;-1.60;99.90;;;;;;5094218;28;20042;-64
2023/01/30 00:50:52;;;;;;;45.00;33.35;;;-1.80;99.90;;;;;;5094345;28;20016;-64
2023/01/30 00:53:18;;;;;;;42.47;31.98;;;-1.80;99.90;;;;;;5094127;28;20028;-64
2023/01/30 00:55:44;;;;;;;44.10;31.08;;;-1.90;99.90;;;;;;5094077;28;20024;-64
2023/01/30 00:58:10;;;;;;;44.03;32.55;;;-1.90;99.90;;;;;;5093866;28;20396;-64
2023/01/30 01:00:37;;;;;;;46.00;33.63;;;-1.80;99.90;;;;;;5093865;28;20166;-64
2023/01/30 01:03:03;;;;;;;52.08;36.58;;;-2.00;99.90;;;;;;5093945;28;20028;-64
2023/01/30 01:05:29;;;;;;;51.85;37.35;;;-1.80;99.90;;;;;;5093825;28;20035;-64
2023/01/30 01:07:55;;;;;;;49.25;35.55;;;-1.50;99.90;;;;;;5105725;28;20028;-64
2023/01/30 01:10:21;;;;;;;49.83;36.50;;;-1.60;99.90;;;;;;5112718;28;20043;-64
2023/01/30 01:12:51;;;;;;;55.67;38.13;;;-1.70;99.90;;;;;;5114492;28;20027;-64
2023/01/30 01:15:17;;;;;;;42.00;30.77;;;-1.70;99.90;;;;;;5114041;28;20078;-64
2023/01/30 01:17:43;;;;;;;35.58;27.10;;;-1.80;99.90;;;;;;5113857;28;20103;-64
2023/01/30 01:20:09;;;;;;;35.47;27.50;;;-1.90;99.90;;;;;;5114327;28;20095;-64
2023/01/30 01:22:35;;;;;;;36.53;28.15;;;-1.90;99.90;;;;;;5113971;28;20020;-64
2023/01/30 01:25:01;;;;;;;36.20;27.67;;;-2.00;99.90;;;;;;5113653;28;20089;-64
2023/01/30 01:27:28;;;;;;;35.33;26.05;;;-2.00;99.90;;;;;;5113809;28;20051;-64
2023/01/30 01:29:53;;;;;;;35.38;26.13;;;-2.00;99.90;;;;;;5113811;28;20046;-64
2023/01/30 01:32:20;;;;;;;36.90;26.60;;;-2.10;99.90;;;;;;5113319;28;20023;-64
2023/01/30 01:34:46;;;;;;;39.13;28.65;;;-2.30;99.90;;;;;;5113576;28;20051;-64
2023/01/30 01:37:12;;;;;;;42.97;29.65;;;-2.40;99.90;;;;;;5113768;28;20066;-64
2023/01/30 01:42:25;;;;;;;46.10;33.08;;;-1.90;99.90;;;;;;5113579;28;20152;-64
2023/01/30 01:45:13;;;;;;;50.40;33.70;;;-2.00;99.90;;;;;;5113465;28;20031;-64
2023/01/30 01:47:52;;;;;;;43.75;31.08;;;-2.10;99.90;;;;;;5099167;28;20017;-64
2023/01/30 01:50:22;;;;;;;46.20;31.23;;;-2.30;99.90;;;;;;5092876;28;20036;-64
2023/01/30 01:52:50;;;;;;;43.83;31.30;;;-2.40;99.90;;;;;;5092716;28;20106;-63
2023/01/30 01:55:17;;;;;;;47.42;32.45;;;-2.20;99.90;;;;;;5092808;28;20031;-64
2023/01/30 01:57:51;;;;;;;41.25;29.13;;;-2.30;99.90;;;;;;5093101;28;20028;-64
2023/01/30 02:00:19;;;;;;;31.88;23.17;;;-2.10;99.90;;;;;;5092854;28;20524;-64
2023/01/30 02:03:02;;;;;;;28.83;22.08;;;-2.00;99.90;;;;;;5092030;28;20032;-63
2023/01/30 02:05:35;;;;;;;35.90;28.48;;;-2.00;99.90;;;;;;5092789;28;20040;-63
2023/01/30 02:08:06;;;;;;;51.10;42.75;;;-2.10;99.90;;;;;;5105664;28;20133;-64
2023/01/30 02:10:47;;;;;;;35.13;27.40;;;-2.10;99.90;;;;;;5112859;28;20050;-64
2023/01/30 02:13:13;;;;;;;31.98;24.98;;;-2.20;99.90;;;;;;5112974;28;20032;-63
2023/01/30 02:15:39;;;;;;;32.05;24.00;;;-2.40;99.90;;;;;;5112652;28;20427;-64
2023/01/30 02:18:05;;;;;;;33.60;24.77;;;-2.50;99.90;;;;;;5113320;28;20051;-63
2023/01/30 02:20:53;;;;;;;38.30;27.80;;;-2.60;99.90;;;;;;5112769;28;20023;-63
2023/01/30 02:23:48;;;;;;;37.97;27.15;;;-2.50;99.90;;;;;;5112554;28;20035;-64
2023/01/30 02:26:32;;;;;;;34.70;24.83;;;-2.40;99.90;;;;;;5098313;28;20633;-64
2023/01/30 02:29:19;;;;;;;29.40;22.00;;;-2.40;99.90;;;;;;5112787;28;20030;-64
2023/01/30 02:32:03;;;;;;;27.40;21.42;;;-2.40;99.90;;;;;;5112321;28;20384;-64
2023/01/30 02:34:57;;;;;;;28.33;21.63;;;-2.40;99.90;;;;;;5112753;28;20031;-64
2023/01/30 02:37:23;;;;;;;28.30;20.27;;;-2.40;99.90;;;;;;5112487;28;20024;-64
2023/01/30 02:40:25;;;;;;;24.83;19.52;;;-2.20;99.90;;;;;;5112673;28;20110;-64
2023/01/30 02:43:15;;;;;;;23.02;18.10;;;-2.20;99.90;;;;;;5112524;28;20034;-64
2023/01/30 02:45:53;;;;;;;32.35;24.95;;;-2.30;99.90;;;;;;5112165;28;20110;-64
2023/01/30 02:48:24;;;;;;;26.55;18.05;;;-2.30;99.90;;;;;;5112265;28;20092;-64
2023/01/30 02:51:06;;;;;;;24.52;16.80;;;-2.30;99.90;;;;;;5112324;28;20051;-64
2023/01/30 02:53:33;;;;;;;22.77;17.60;;;-2.30;99.90;;;;;;5112578;28;20027;-64
2023/01/30 02:55:59;;;;;;;82.47;64.00;;;-2.30;99.90;;;;;;5112146;28;20024;-64
2023/01/30 02:58:31;;;;;;;25.20;19.35;;;-2.20;99.90;;;;;;5112416;28;20027;-63
2023/01/30 03:01:11;;;;;;;23.00;16.45;;;-2.10;99.90;;;;;;5111962;28;20604;-64
2023/01/30 03:03:43;;;;;;;21.55;16.90;;;-1.90;99.90;;;;;;5112680;28;20034;-64
2023/01/30 03:06:15;;;;;;;21.27;16.33;;;-1.90;99.90;;;;;;5112253;28;20103;-63
2023/01/30 03:08:49;;;;;;;22.45;16.70;;;-1.80;99.90;;;;;;5112195;28;20427;-64
2023/01/30 03:11:16;;;;;;;19.75;14.90;;;-1.80;99.90;;;;;;5112126;28;20059;-64
2023/01/30 03:13:57;;;;;;;21.55;16.65;;;-1.80;99.90;;;;;;5112181;28;20028;-64
2023/01/30 03:16:26;;;;;;;19.20;15.52;;;-1.80;99.90;;;;;;5112089;28;20033;-64
2023/01/30 03:18:52;;;;;;;20.92;16.27;;;-1.80;99.90;;;;;;5112114;28;20060;-64
2023/01/30 03:21:18;;;;;;;21.10;16.20;;;-1.80;99.90;;;;;;5112439;28;20062;-64
2023/01/30 03:23:45;;;;;;;22.30;16.50;;;-1.70;99.90;;;;;;5112078;28;20032;-64
2023/01/30 03:26:18;;;;;;;22.40;17.63;;;-1.60;99.90;;;;;;5112109;28;20106;-64
2023/01/30 03:28:48;;;;;;;28.13;20.33;;;-1.70;99.90;;;;;;5111866;28;20062;-64
2023/01/30 03:31:14;;;;;;;28.63;20.23;;;-1.70;99.90;;;;;;5112141;28;20441;-64
2023/01/30 03:33:39;;;;;;;24.38;18.35;;;-1.60;99.90;;;;;;5114785;28;20032;-64
2023/01/30 03:36:05;;;;;;;32.55;22.85;;;-1.30;99.90;;;;;;5116525;28;20046;-63
2023/01/30 03:38:32;;;;;;;35.78;25.00;;;-1.30;99.90;;;;;;5115921;28;20027;-64
2023/01/30 03:40:58;;;;;;;39.08;27.77;;;-1.30;99.90;;;;;;5115911;28;20476;-64
2023/01/30 03:43:24;;;;;;;37.17;25.50;;;-1.30;99.90;;;;;;5115864;28;20053;-64
2023/01/30 03:45:49;;;;;;;35.58;24.55;;;-1.30;99.90;;;;;;5115814;28;20031;-64
2023/01/30 03:48:15;;;;;;;27.65;20.33;;;-1.40;99.90;;;;;;5115861;28;20020;-64
2023/01/30 03:50:40;;;;;;;28.55;22.02;;;-1.50;99.90;;;;;;5115919;28;20037;-64
2023/01/30 03:53:06;;;;;;;24.98;20.40;;;-1.60;99.90;;;;;;5115825;28;20024;-64
2023/01/30 03:55:32;;;;;;;26.23;20.48;;;-1.70;99.90;;;;;;5115541;28;20095;-64
2023/01/30 03:57:57;;;;;;;25.02;20.40;;;-1.50;99.90;;;;;;5115162;28;20494;-64
2023/01/30 04:00:23;;;;;;;28.70;23.27;;;-1.40;99.90;;;;;;5097592;28;20118;-64
2023/01/30 04:02:49;;;;;;;29.60;22.75;;;-1.40;99.90;;;;;;5115481;28;20028;-63
2023/01/30 04:05:15;;;;;;;30.35;23.85;;;-1.40;99.90;;;;;;5115438;28;20027;-63
2023/01/30 04:07:40;;;;;;;32.72;24.83;;;-1.40;99.90;;;;;;5115712;28;20050;-64
2023/01/30 04:10:07;;;;;;;37.70;25.08;;;-1.40;99.90;;;;;;5115230;28;20040;-63
2023/01/30 04:12:32;;;;;;;35.30;27.15;;;-1.60;99.90;;;;;;5114909;28;20028;-63
2023/01/30 04:14:58;;;;;;;37.78;26.42;;;-1.80;99.90;;;;;;5115356;28;20069;-64
2023/01/30 04:17:24;;;;;;;35.25;24.25;;;-1.70;99.90;;;;;;5115499;28;20093;-63
2023/01/30 04:19:49;;;;;;;44.60;30.40;;;-2.00;99.90;;;;;;5115165;28;20425;-63
2023/01/30 04:22:15;;;;;;;35.85;25.77;;;-2.00;99.90;;;;;;5115081;28;20455;-64
2023/01/30 04:24:41;;;;;;;26.30;20.98;;;-2.10;99.90;;;;;;5115004;28;20039;-64
2023/01/30 04:27:08;;;;;;;26.30;20.98;;;-2.00;99.90;;;;;;5115217;28;20023;-64
2023/01/30 04:29:34;;;;;;;27.45;21.60;;;-2.10;99.90;;;;;;5114990;28;20101;-63
2023/01/30 04:31:59;;;;;;;23.65;19.45;;;-2.10;99.90;;;;;;5114806;28;20051;-63
2023/01/30 04:34:25;;;;;;;24.63;20.08;;;-2.10;99.90;;;;;;5114970;28;20027;-64
2023/01/30 04:36:51;;;;;;;26.40;20.50;;;-2.40;99.90;;;;;;5115290;28;20100;-63
2023/01/30 04:39:16;;;;;;;24.67;19.65;;;-2.60;99.90;;;;;;5114736;28;20034;-63
2023/01/30 04:41:42;;;;;;;26.70;20.58;;;-2.60;99.90;;;;;;5114591;28;20031;-63
2023/01/30 04:44:08;;;;;;;25.75;20.77;;;-2.40;99.90;;;;;;5114520;28;20081;-63
2023/01/30 04:46:34;;;;;;;27.52;20.42;;;-2.20;99.90;;;;;;5114312;28;20106;-64
2023/01/30 04:48:59;;;;;;;28.17;21.23;;;-2.20;99.90;;;;;;5114678;28;20058;-64
2023/01/30 04:51:25;;;;;;;28.33;20.77;;;-2.30;99.90;;;;;;5114923;28;20026;-63
2023/01/30 04:53:51;;;;;;;27.58;20.63;;;-2.30;99.90;;;;;;5114834;28;20058;-64
2023/01/30 04:56:16;;;;;;;26.88;20.58;;;-2.10;99.90;;;;;;5114213;28;20055;-63
2023/01/30 04:58:42;;;;;;;31.42;21.92;;;-2.20;99.90;;;;;;5114451;28;20016;-63
2023/01/30 05:01:22;;;;;;;28.55;21.50;;;-2.30;99.90;;;;;;5114310;28;20086;-63
2023/01/30 05:03:52;;;;;;;30.35;22.13;;;-2.30;99.90;;;;;;5114246;28;20031;-63
2023/01/30 05:06:19;;;;;;;31.55;22.10;;;-2.40;99.90;;;;;;5096446;28;20019;-63
2023/01/30 05:08:51;;;;;;;30.10;21.83;;;-2.30;99.90;;;;;;5113769;28;20030;-64
2023/01/30 05:11:17;;;;;;;29.55;22.60;;;-2.20;99.90;;;;;;5114001;28;20459;-63
2023/01/30 05:13:43;;;;;;;33.80;24.45;;;-2.30;99.90;;;;;;5114237;28;20467;-63
2023/01/30 05:16:10;;;;;;;32.28;24.33;;;-2.50;99.90;;;;;;5095838;28;20062;-63
2023/01/30 05:18:36;;;;;;;39.45;26.77;;;-2.50;99.90;;;;;;5114079;28;20806;-63
2023/01/30 05:21:07;;;;;;;40.38;29.52;;;-2.60;99.90;;;;;;5114539;28;20047;-63
2023/01/30 05:23:33;;;;;;;45.72;31.05;;;-2.70;99.90;;;;;;5113840;28;20020;-63
2023/01/30 05:25:59;;;;;;;42.13;29.23;;;-2.70;99.90;;;;;;5113569;28;20039;-62
2023/01/30 05:28:25;;;;;;;44.17;29.85;;;-2.80;99.90;;;;;;5113963;28;20024;-63
2023/01/30 05:30:51;;;;;;;45.08;30.30;;;-2.50;99.90;;;;;;5113810;28;20023;-64
2023/01/30 05:33:17;;;;;;;47.70;30.55;;;-2.40;99.90;;;;;;5114173;28;20074;-63
2023/01/30 05:35:49;;;;;;;43.92;31.05;;;-2.40;99.90;;;;;;5113747;28;20034;-63
2023/01/30 05:38:15;;;;;;;44.63;31.77;;;-2.20;99.90;;;;;;5113273;28;20503;-62
2023/01/30 05:40:41;;;;;;;44.63;31.75;;;-2.00;99.90;;;;;;5113663;28;20020;-63
2023/01/30 05:43:08;;;;;;;45.42;31.90;;;-1.90;99.90;;;;;;5113693;28;20027;-63
2023/01/30 05:45:34;;;;;;;41.20;29.75;;;-1.70;99.90;;;;;;5113286;28;20031;-63
2023/01/30 05:48:00;;;;;;;36.75;26.90;;;-1.70;99.90;;;;;;5113103;28;20032;-63
2023/01/30 05:50:26;;;;;;;38.85;29.70;;;-1.60;99.90;;;;;;5113950;28;20053;-63
2023/01/30 05:52:51;;;;;;;38.85;29.92;;;-1.70;99.90;;;;;;5113249;28;20059;-63
2023/01/30 05:55:17;;;;;;;58.13;48.80;;;-1.60;99.90;;;;;;5112712;28;20024;-63
2023/01/30 05:57:42;;;;;;;36.80;28.58;;;-1.50;99.90;;;;;;5113030;28;20036;-63
2023/01/30 06:00:09;;;;;;;30.90;22.95;;;-1.50;99.90;;;;;;5113072;28;20020;-63
2023/01/30 06:02:35;;;;;;;32.72;25.63;;;-1.50;99.90;;;;;;5113155;28;20054;-63
2023/01/30 06:05:01;;;;;;;34.47;26.55;;;-1.40;99.90;;;;;;5113117;28;20453;-63
2023/01/30 06:07:26;;;;;;;35.78;27.17;;;-1.30;99.90;;;;;;5112970;28;20023;-63
2023/01/30 06:09:52;;;;;;;37.30;27.10;;;-1.30;99.90;;;;;;5112830;28;20462;-63
2023/01/30 06:12:18;;;;;;;35.60;27.88;;;-1.30;99.90;;;;;;5112939;28;20418;-63
2023/01/30 06:14:43;;;;;;;37.58;28.52;;;-1.30;99.90;;;;;;5112980;28;20057;-63
2023/01/30 06:17:09;;;;;;;38.63;27.95;;;-1.10;99.90;;;;;;5113193;28;20028;-63
2023/01/30 06:19:35;;;;;;;36.10;26.80;;;-1.10;99.90;;;;;;5113003;28;20035;-63
2023/01/30 06:22:01;;;;;;;36.00;27.92;;;-1.10;99.90;;;;;;5112425;28;20024;-62
2023/01/30 06:24:27;;;;;;;36.00;29.25;;;-1.10;99.90;;;;;;5112756;28;20456;-62
2023/01/30 06:26:53;;;;;;;36.83;29.45;;;-1.00;99.90;;;;;;5112728;28;20100;-63
2023/01/30 06:29:19;;;;;;;39.50;29.02;;;-0.90;99.90;;;;;;5112551;28;20396;-63
2023/01/30 06:31:45;;;;;;;35.40;27.23;;;-0.90;99.90;;;;;;5113093;28;20021;-63
2023/01/30 06:34:11;;;;;;;36.75;27.48;;;-0.90;99.90;;;;;;5112672;28;20032;-63
2023/01/30 06:36:37;;;;;;;40.53;28.55;;;-0.80;99.90;;;;;;5112173;28;20023;-63
2023/01/30 06:39:03;;;;;;;39.00;30.65;;;-0.90;99.90;;;;;;5113058;28;20030;-63
2023/01/30 06:41:29;;;;;;;34.75;29.00;;;-0.80;99.90;;;;;;5112533;28;20043;-63
2023/01/30 06:43:54;;;;;;;34.35;27.73;;;-0.80;99.90;;;;;;5112327;28;20501;-63
2023/01/30 06:46:20;;;;;;;37.47;29.38;;;-0.80;99.90;;;;;;5112120;28;20030;-63
2023/01/30 06:48:46;;;;;;;46.47;33.72;;;-0.70;99.90;;;;;;5112512;28;20503;-63
2023/01/30 06:51:12;;;;;;;43.88;31.58;;;-0.70;99.90;;;;;;5111991;28;20023;-63
2023/01/30 06:53:38;;;;;;;63.33;46.08;;;-0.70;99.90;;;;;;5112861;28;20124;-63
2023/01/30 06:56:04;;;;;;;49.17;37.42;;;-0.70;99.90;;;;;;5112279;28;20476;-63
2023/01/30 06:58:29;;;;;;;50.05;37.40;;;-0.80;99.90;;;;;;5112253;28;20030;-63
2023/01/30 07:00:55;;;;;;;48.95;36.40;;;-0.80;99.90;;;;;;5112588;28;20029;-63
2023/01/30 07:03:21;;;;;;;53.10;36.95;;;-0.80;99.90;;;;;;5111883;28;20069;-63
2023/01/30 07:05:47;;;;;;;55.13;38.22;;;-0.80;99.90;;;;;;5112025;28;20046;-63
2023/01/30 07:08:13;;;;;;;52.00;37.95;;;-0.70;99.90;;;;;;5114156;28;20100;-63
2023/01/30 07:10:40;;;;;;;47.80;35.28;;;-0.70;99.90;;;;;;5116748;28;20097;-63
2023/01/30 07:13:06;;;;;;;50.63;34.70;;;-0.70;99.90;;;;;;5116527;28;20026;-63
2023/01/30 07:15:32;;;;;;;51.45;39.67;;;-0.70;99.90;;;;;;5116474;28;20036;-63
2023/01/30 07:17:58;;;;;;;51.00;38.65;;;-0.50;99.90;;;;;;5116700;28;20042;-63
2023/01/30 07:20:24;;;;;;;48.13;37.92;;;-0.40;99.90;;;;;;5116142;28;20027;-63
2023/01/30 07:22:54;;;;;;;45.00;37.05;;;-0.40;99.90;;;;;;5116303;28;20510;-63
2023/01/30 07:25:22;;;;;;;42.13;35.90;;;-0.30;99.90;;;;;;5116134;28;20114;-63
2023/01/30 07:28:00;;;;;;;37.33;32.00;;;-0.20;99.90;;;;;;5116405;28;20028;-63
2023/01/30 07:30:28;;;;;;;34.97;30.38;;;-0.20;99.90;;;;;;5116160;28;20024;-63
2023/01/30 07:32:59;;;;;;;36.05;28.58;;;-0.20;99.90;;;;;;5116155;28;20024;-63
2023/01/30 07:35:27;;;;;;;31.13;26.25;;;-0.20;99.90;;;;;;5115771;28;20016;-63
2023/01/30 07:37:52;;;;;;;28.15;23.83;;;-0.20;99.90;;;;;;5116081;28;20597;-63
2023/01/30 07:40:19;;;;;;;25.85;23.02;;;-0.20;99.90;;;;;;5115900;28;20028;-63
2023/01/30 07:43:04;;;;;;;25.10;22.40;;;-0.20;99.90;;;;;;5115768;28;20042;-63
2023/01/30 07:45:42;;;;;;;24.27;21.63;;;-0.20;99.90;;;;;;5115712;28;20040;-63
2023/01/30 07:48:09;;;;;;;25.48;21.60;;;-0.10;99.90;;;;;;5115352;28;20110;-62
2023/01/30 07:50:35;;;;;;;23.50;20.38;;;0.00;99.90;;;;;;5115623;28;20108;-63
2023/01/30 07:53:05;;;;;;;40.70;32.65;;;0.00;99.90;;;;;;5115785;28;20054;-63
2023/01/30 07:55:32;;;;;;;29.67;26.13;;;0.00;99.90;;;;;;5115965;28;20397;-62
2023/01/30 07:57:58;;;;;;;24.42;21.27;;;-0.10;99.90;;;;;;5115586;28;20027;-62
2023/01/30 08:00:24;;;;;;;36.33;28.40;;;0.00;99.90;;;;;;5115518;28;20012;-62
2023/01/30 08:02:50;;;;;;;36.17;29.25;;;0.20;99.90;;;;;;5115524;28;20472;-62
2023/01/30 08:05:16;;;;;;;33.80;27.45;;;0.20;99.90;;;;;;5115186;28;20042;-63
2023/01/30 08:07:41;;;;;;;31.67;24.55;;;0.30;99.90;;;;;;5115619;28;20032;-60
2023/01/30 08:10:08;;;;;;;42.50;35.42;;;0.30;99.90;;;;;;5115106;28;20052;-62
2023/01/30 08:12:34;;;;;;;45.65;35.60;;;0.40;99.90;;;;;;5115220;28;20035;-62
2023/01/30 08:15:00;;;;;;;33.42;28.65;;;0.40;99.90;;;;;;5115690;28;20430;-62
2023/01/30 08:17:25;;;;;;;38.42;31.42;;;0.40;99.90;;;;;;5115171;28;20080;-62
2023/01/30 08:19:51;;;;;;;42.45;34.25;;;0.60;99.90;;;;;;5114256;28;20019;-63
2023/01/30 08:22:17;;;;;;;43.35;35.30;;;0.70;99.90;;;;;;5114627;28;20293;-63
2023/01/30 08:24:43;;;;;;;43.47;37.55;;;0.70;99.90;;;;;;5114744;28;20059;-63
2023/01/30 08:27:08;;;;;;;42.67;35.53;;;0.80;99.90;;;;;;5115090;28;20027;-63
2023/01/30 08:29:34;;;;;;;38.17;30.50;;;0.90;99.90;;;;;;5114968;28;20050;-63
2023/01/30 08:32:00;;;;;;;35.53;30.45;;;1.20;99.90;;;;;;5115317;28;20027;-63
2023/01/30 08:34:26;;;;;;;37.95;33.33;;;1.20;99.90;;;;;;5114632;28;20102;-63
2023/01/30 08:36:51;;;;;;;37.35;33.20;;;1.30;99.90;;;;;;5114723;28;20388;-63
2023/01/30 08:39:17;;;;;;;38.90;34.67;;;1.40;99.90;;;;;;5115121;28;20069;-63
2023/01/30 08:41:43;;;;;;;51.03;45.42;;;1.30;99.90;;;;;;5114874;28;20024;-62
2023/01/30 08:44:09;;;;;;;51.38;45.90;;;1.40;99.90;;;;;;5114551;28;20020;-63
2023/01/30 08:46:36;;;;;;;57.00;50.78;;;1.60;99.90;;;;;;5095995;28;20396;-63
2023/01/30 08:49:02;;;;;;;56.22;50.33;;;1.70;99.90;;;;;;5114058;28;20094;-63
2023/01/30 08:51:27;;;;;;;51.85;46.20;;;1.70;99.90;;;;;;5114579;28;20197;-63
2023/01/30 08:53:53;;;;;;;67.10;58.35;;;1.90;99.90;;;;;;5114202;28;20028;-65
2023/01/30 08:56:19;;;;;;;64.38;57.33;;;2.20;99.90;;;;;;5114812;28;20055;-64
2023/01/30 08:58:45;;;;;;;47.05;37.03;;;2.00;99.90;;;;;;5114514;28;20026;-64
2023/01/30 09:01:11;;;;;;;34.50;30.60;;;1.90;99.90;;;;;;5114207;28;20032;-63
2023/01/30 09:03:37;;;;;;;28.98;25.27;;;2.10;99.90;;;;;;5113154;28;20058;-63
2023/01/30 09:06:03;;;;;;;28.50;24.55;;;3.20;99.90;;;;;;5113441;28;20023;-63
2023/01/30 09:08:28;;;;;;;24.08;21.48;;;6.30;99.90;;;;;;5096029;28;20027;-63
2023/01/30 09:11:03;;;;;;;23.45;21.05;;;7.40;99.90;;;;;;5113989;28;20569;-64
2023/01/30 09:13:29;;;;;;;21.33;19.05;;;8.50;99.90;;;;;;5114338;28;20046;-63
2023/01/30 09:15:56;;;;;;;26.20;20.42;;;9.10;99.90;;;;;;5113797;28;20031;-63
2023/01/30 09:18:23;;;;;;;17.27;15.25;;;9.50;99.90;;;;;;5114464;28;20055;-63
2023/01/30 09:20:48;;;;;;;19.30;15.98;;;9.00;99.90;;;;;;5114307;28;20431;-63
2023/01/30 09:23:14;;;;;;;15.77;14.23;;;9.50;99.90;;;;;;5113953;28;20034;-63
2023/01/30 09:25:43;;;;;;;16.75;14.05;;;10.00;99.90;;;;;;5114231;28;20108;-64
2023/01/30 09:28:08;;;;;;;15.82;14.20;;;7.30;99.90;;;;;;5114332;28;20033;-63
2023/01/30 09:30:34;;;;;;;15.68;14.07;;;6.50;99.90;;;;;;5112839;28;20024;-63
2023/01/30 09:33:00;;;;;;;17.60;14.88;;;5.80;99.90;;;;;;5095670;28;20073;-63
2023/01/30 09:35:25;;;;;;;19.60;17.45;;;6.00;99.90;;;;;;5113892;28;20020;-64
2023/01/30 09:37:52;;;;;;;19.27;17.20;;;5.90;99.90;;;;;;5114153;28;20099;-63
2023/01/30 09:40:30;;;;;;;18.75;16.70;;;6.10;99.90;;;;;;5113799;28;20488;-63
2023/01/30 09:43:25;;;;;;;18.92;16.98;;;7.10;99.90;;;;;;5113853;28;20160;-63
2023/01/30 09:46:00;;;;;;;18.92;15.38;;;7.10;99.90;;;;;;5113842;28;20034;-64
2023/01/30 09:48:37;;;;;;;16.08;14.45;;;8.40;99.90;;;;;;5113407;28;20038;-63
2023/01/30 09:51:18;;;;;;;15.82;13.70;;;8.50;99.90;;;;;;5113669;28;20103;-63
2023/01/30 09:53:53;;;;;;;15.20;13.60;;;9.30;99.90;;;;;;5113480;28;20018;-64
2023/01/30 09:56:19;;;;;;;15.75;13.85;;;8.70;99.90;;;;;;5113513;28;20032;-63
2023/01/30 09:58:50;;;;;;;15.43;13.88;;;9.50;99.90;;;;;;5113652;28;20091;-63
2023/01/30 10:01:34;;;;;;;18.50;14.13;;;8.60;99.90;;;;;;5112991;28;20380;-63
2023/01/30 10:04:28;;;;;;;17.00;14.60;;;7.40;99.90;;;;;;5113247;28;20063;-63
2023/01/30 10:07:08;;;;;;;15.75;14.07;;;7.00;99.90;;;;;;5113094;28;20011;-63
2023/01/30 10:09:37;;;;;;;35.67;31.92;;;8.00;99.90;;;;;;5112999;28;20056;-63
2023/01/30 10:12:36;;;;;;;51.13;45.70;;;13.00;99.90;;;;;;5113026;28;20047;-63
2023/01/30 10:15:15;;;;;;;18.60;16.60;;;11.10;99.90;;;;;;5112779;28;20016;-63
2023/01/30 10:17:59;;;;;;;14.88;13.38;;;9.80;99.90;;;;;;5113372;28;20023;-63
2023/01/30 10:21:03;;;;;;;24.50;22.08;;;10.20;99.90;;;;;;5112838;28;20024;-63
2023/01/30 10:23:57;;;;;;;14.18;12.68;;;11.20;99.90;;;;;;5112864;28;20069;-63
2023/01/30 10:26:26;;;;;;;22.42;20.13;;;12.50;99.90;;;;;;5112889;28;20492;-63
2023/01/30 10:29:13;;;;;;;20.73;18.63;;;11.10;99.90;;;;;;5112495;28;20024;-63
2023/01/30 10:32:16;;;;;;;13.48;11.48;;;11.40;99.90;;;;;;5112770;28;20027;-63
2023/01/30 10:34:48;;;;;;;12.45;11.15;;;10.40;99.90;;;;;;5099287;28;20125;-63
2023/01/30 10:37:14;;;;;;;17.77;15.88;;;10.00;99.90;;;;;;5112835;28;20026;-64
2023/01/30 10:39:42;;;;;;;25.13;22.52;;;11.00;99.90;;;;;;5113242;28;20015;-63
2023/01/30 10:42:18;;;;;;;12.60;11.15;;;13.10;99.90;;;;;;5094234;28;20434;-63
2023/01/30 10:44:44;;;;;;;14.13;11.38;;;11.40;99.90;;;;;;5112072;28;20043;-63
2023/01/30 10:47:16;;;;;;;11.70;10.50;;;13.90;99.90;;;;;;5112587;28;20380;-63
2023/01/30 10:49:56;;;;;;;24.05;21.95;;;14.20;99.90;;;;;;5112260;28;20034;-63
2023/01/30 10:52:26;;;;;;;12.52;10.55;;;16.20;99.90;;;;;;5112648;28;20023;-62
2023/01/30 10:55:01;;;;;;;23.83;21.83;;;15.30;99.90;;;;;;5112530;28;20031;-63
2023/01/30 10:57:55;;;;;;;12.98;11.77;;;18.20;99.90;;;;;;5112123;28;20047;-62
2023/01/30 11:00:34;;;;;;;10.38;9.35;;;16.60;99.90;;;;;;5112505;28;20092;-64
2023/01/30 11:03:08;;;;;;;10.65;9.63;;;15.20;99.90;;;;;;5112795;28;20100;-63
2023/01/30 11:05:49;;;;;;;11.27;10.07;;;16.10;99.90;;;;;;5112284;28;20076;-63
2023/01/30 11:08:32;;;;;;;11.20;10.18;;;16.20;99.90;;;;;;5112030;28;20050;-63
2023/01/30 11:10:58;;;;;;;19.52;16.30;;;17.60;99.90;;;;;;5112394;28;20048;-64
2023/01/30 11:13:32;;;;;;;10.82;9.73;;;17.50;99.90;;;;;;5111250;28;20024;-64
2023/01/30 11:16:02;;;;;;;10.88;9.85;;;16.70;99.90;;;;;;5112063;28;20031;-64
2023/01/30 11:18:28;;;;;;;10.75;9.70;;;16.40;99.90;;;;;;5112146;28;20034;-64
2023/01/30 11:21:05;;;;;;;10.73;9.73;;;16.00;99.90;;;;;;5112309;28;20043;-64
2023/01/30 11:23:35;;;;;;;11.13;10.02;;;15.50;99.90;;;;;;5112700;28;20054;-64
2023/01/30 11:26:02;;;;;;;11.52;10.35;;;17.70;99.90;;;;;;5112374;28;20092;-64
2023/01/30 11:28:42;;;;;;;10.73;9.63;;;18.40;99.90;;;;;;5111837;28;20085;-64
2023/01/30 11:31:21;;;;;;;14.10;12.82;;;19.20;99.90;;;;;;5094052;28;20481;-63
2023/01/30 11:34:04;;;;;;;15.65;14.10;;;20.30;99.90;;;;;;5112253;28;20019;-64
2023/01/30 11:36:31;;;;;;;31.65;28.48;;;18.20;99.90;;;;;;5112166;28;20031;-64
2023/01/30 11:38:59;;;;;;;14.65;13.15;;;18.90;99.90;;;;;;5112647;28;20553;-64
2023/01/30 11:41:25;;;;;;;10.95;9.65;;;18.70;99.90;;;;;;5109423;28;20110;-64
2023/01/30 11:44:02;;;;;;;10.25;9.30;;;18.00;99.90;;;;;;5110021;28;20016;-64
2023/01/30 11:46:33;;;;;;;27.65;24.67;;;19.10;99.90;;;;;;5094736;28;20032;-64
2023/01/30 11:49:09;;;;;;;61.05;54.50;;;20.30;99.90;;;;;;5111224;28;20024;-64
2023/01/30 11:51:36;;;;;;;65.97;54.40;;;19.20;99.90;;;;;;5111871;28;20027;-64
2023/01/30 11:54:04;;;;;;;69.30;61.47;;;20.30;99.90;;;;;;5112378;28;20521;-64
2023/01/30 11:56:55;;;;;;;32.78;29.30;;;17.60;99.90;;;;;;5115293;28;20028;-64
2023/01/30 11:59:35;;;;;;;19.50;17.60;;;18.60;99.90;;;;;;5115724;28;20054;-64
2023/01/30 12:02:18;;;;;;;9.32;8.23;;;15.90;99.90;;;;;;5114909;28;20100;-64
2023/01/30 12:04:46;;;;;;;15.02;13.55;;;16.30;99.90;;;;;;5114987;28;20031;-64
2023/01/30 12:07:20;;;;;;;22.70;20.63;;;17.60;99.90;;;;;;5115508;28;20434;-64
2023/01/30 12:09:49;;;;;;;9.13;8.32;;;17.10;99.90;;;;;;5114614;28;20070;-63
2023/01/30 12:12:32;;;;;;;25.63;23.25;;;17.00;99.90;;;;;;5113934;28;20048;-63
2023/01/30 12:15:13;;;;;;;25.63;23.23;;;14.90;99.90;;;;;;5114018;28;20035;-63
2023/01/30 12:17:57;;;;;;;29.85;26.92;;;14.40;99.90;;;;;;5114899;28;20030;-63
2023/01/30 12:20:36;;;;;;;19.63;17.80;;;14.60;99.90;;;;;;5114801;28;20055;-63
2023/01/30 12:23:23;;;;;;;9.23;8.27;;;13.60;99.90;;;;;;5096467;28;20395;-64
2023/01/30 12:25:59;;;;;;;8.07;7.28;;;12.80;99.90;;;;;;5114586;28;20074;-64
2023/01/30 12:28:45;;;;;;;7.25;6.38;;;14.00;99.90;;;;;;5114944;28;20008;-63
2023/01/30 12:31:19;;;;;;;7.20;6.50;;;14.40;99.90;;;;;;5114294;28;20479;-64
2023/01/30 12:33:46;;;;;;;7.55;6.75;;;14.20;99.90;;;;;;5114629;28;20102;-64
2023/01/30 12:36:43;;;;;;;9.57;8.60;;;13.90;99.90;;;;;;5114215;28;20259;-63
2023/01/30 12:39:32;;;;;;;7.20;6.55;;;14.00;99.90;;;;;;5114511;28;20480;-63
2023/01/30 12:42:26;;;;;;;6.30;5.70;;;13.40;99.90;;;;;;5114246;28;20057;-64
2023/01/30 12:44:57;;;;;;;8.85;6.43;;;12.40;99.90;;;;;;5114077;28;20647;-63
2023/01/30 12:47:35;;;;;;;8.30;7.50;;;12.70;99.90;;;;;;5114483;28;20111;-63
2023/01/30 12:50:20;;;;;;;11.95;10.70;;;12.90;99.90;;;;;;5114118;28;20400;-64
2023/01/30 12:53:12;;;;;;;8.70;7.82;;;12.40;99.90;;;;;;5114196;28;20043;-64
2023/01/30 12:55:54;;;;;;;7.00;6.10;;;13.10;99.90;;;;;;5114255;28;20140;-64